sensor_id;sensor_type;location;lat;lon;timestamp;pressure;altitude;pressure_sealevel;temperature;humidity
10946;BME280;5525;42.648;23.368;2023-06-19T00:00:52;94802.19;;;18.47;100.00
10946;BME280;5525;42.648;23.368;2023-06-19T00:03:19;94792.56;;;18.30;100.00
10946;BME280;5525;42.648;23.368;2023-06-19T00:05:47;94805.59;;;18.40;100.00
10946;BME280;5525;42.648;23.368;2023-06-19T00:08:14;94808.91;;;18.27;100.00
10946;BME280;5525;42.648;23.368;2023-06-19T00:10:40;94799.06;;;18.22;100.00
10946;BME280;5525;42.648;23.368;2023-06-19T00:13:07;94802.53;;;18.19;100.00
10946;BME280;5525;42.648;23.368;2023-06-19T00:15:34;94799.28;;;18.10;100.00
10946;BME280;5525;42.648;23.368;2023-06-19T00:18:00;94796.94;;;18.09;100.00
10946;BME280;5525;42.648;23.368;2023-06-19T00:20:27;94790.06;;;17.96;100.00
10946;BME280;5525;42.648;23.368;2023-06-19T00:22:55;94790.81;;;17.93;100.00
10946;BME280;5525;42.648;23.368;2023-06-19T00:25:22;94772.78;;;17.88;100.00
10946;BME280;5525;42.648;23.368;2023-06-19T00:27:48;94785.72;;;17.91;100.00
10946;BME280;5525;42.648;23.368;2023-06-19T00:30:15;94794.06;;;17.76;100.00
10946;BME280;5525;42.648;23.368;2023-06-19T00:32:43;94787.88;;;17.79;100.00
10946;BME280;5525;42.648;23.368;2023-06-19T00:35:13;94786.25;;;17.74;100.00
10946;BME280;5525;42.648;23.368;2023-06-19T00:37:40;94777.38;;;17.58;100.00
10946;BME280;5525;42.648;23.368;2023-06-19T00:40:14;94779.81;;;17.63;100.00
10946;BME280;5525;42.648;23.368;2023-06-19T00:42:42;94776.91;;;17.53;100.00
10946;BME280;5525;42.648;23.368;2023-06-19T00:45:09;94778.47;;;17.54;100.00
10946;BME280;5525;42.648;23.368;2023-06-19T00:47:36;94775.81;;;17.57;100.00
10946;BME280;5525;42.648;23.368;2023-06-19T00:50:04;94776.84;;;17.49;100.00
10946;BME280;5525;42.648;23.368;2023-06-19T00:52:31;94772.75;;;17.40;100.00
10946;BME280;5525;42.648;23.368;2023-06-19T00:54:58;94771.94;;;17.39;100.00
10946;BME280;5525;42.648;23.368;2023-06-19T00:57:26;94768.00;;;17.37;100.00
10946;BME280;5525;42.648;23.368;2023-06-19T00:59:52;94765.72;;;17.39;100.00
10946;BME280;5525;42.648;23.368;2023-06-19T01:02:19;94764.56;;;17.40;100.00
10946;BME280;5525;42.648;23.368;2023-06-19T01:04:49;94759.03;;;17.36;100.00
10946;BME280;5525;42.648;23.368;2023-06-19T01:07:20;94761.34;;;17.34;100.00
10946;BME280;5525;42.648;23.368;2023-06-19T01:09:54;94762.00;;;17.28;100.00
10946;BME280;5525;42.648;23.368;2023-06-19T01:12:29;94750.34;;;17.31;100.00
10946;BME280;5525;42.648;23.368;2023-06-19T01:14:58;94760.13;;;17.32;100.00
10946;BME280;5525;42.648;23.368;2023-06-19T01:17:26;94750.28;;;17.27;100.00
10946;BME280;5525;42.648;23.368;2023-06-19T01:19:53;94754.94;;;17.27;100.00
10946;BME280;5525;42.648;23.368;2023-06-19T01:22:28;94758.03;;;17.25;100.00
10946;BME280;5525;42.648;23.368;2023-06-19T01:24:55;94757.94;;;17.18;100.00
10946;BME280;5525;42.648;23.368;2023-06-19T01:27:23;94759.38;;;17.12;100.00
10946;BME280;5525;42.648;23.368;2023-06-19T01:29:55;94753.13;;;17.12;100.00
10946;BME280;5525;42.648;23.368;2023-06-19T01:32:26;94731.56;;;16.84;100.00
10946;BME280;5525;42.648;23.368;2023-06-19T01:34:58;94761.78;;;16.95;100.00
10946;BME280;5525;42.648;23.368;2023-06-19T01:37:27;94758.84;;;16.84;100.00
10946;BME280;5525;42.648;23.368;2023-06-19T01:39:56;94761.50;;;16.80;100.00
10946;BME280;5525;42.648;23.368;2023-06-19T01:42:23;94768.13;;;16.60;100.00
10946;BME280;5525;42.648;23.368;2023-06-19T01:44:51;94748.44;;;16.32;100.00
10946;BME280;5525;42.648;23.368;2023-06-19T01:47:18;94777.41;;;16.40;100.00
10946;BME280;5525;42.648;23.368;2023-06-19T01:49:45;94773.81;;;16.36;100.00
10946;BME280;5525;42.648;23.368;2023-06-19T01:52:12;94774.78;;;16.44;100.00
10946;BME280;5525;42.648;23.368;2023-06-19T01:54:40;94777.66;;;16.51;100.00
10946;BME280;5525;42.648;23.368;2023-06-19T01:57:07;94773.03;;;16.36;100.00
10946;BME280;5525;42.648;23.368;2023-06-19T01:59:35;94781.50;;;16.31;100.00
10946;BME280;5525;42.648;23.368;2023-06-19T02:02:01;94770.81;;;16.41;100.00
10946;BME280;5525;42.648;23.368;2023-06-19T02:04:29;94784.13;;;16.27;100.00
10946;BME280;5525;42.648;23.368;2023-06-19T02:06:55;94793.09;;;16.28;100.00
10946;BME280;5525;42.648;23.368;2023-06-19T02:09:22;94793.31;;;16.38;100.00
10946;BME280;5525;42.648;23.368;2023-06-19T02:11:50;94795.94;;;16.50;100.00
10946;BME280;5525;42.648;23.368;2023-06-19T02:14:17;94781.50;;;16.50;100.00
10946;BME280;5525;42.648;23.368;2023-06-19T02:16:44;94791.34;;;16.54;100.00
10946;BME280;5525;42.648;23.368;2023-06-19T02:19:10;94795.50;;;16.48;100.00
10946;BME280;5525;42.648;23.368;2023-06-19T02:21:37;94794.50;;;16.56;100.00
10946;BME280;5525;42.648;23.368;2023-06-19T02:24:05;94794.66;;;16.29;100.00
10946;BME280;5525;42.648;23.368;2023-06-19T02:26:32;94791.13;;;16.09;100.00
10946;BME280;5525;42.648;23.368;2023-06-19T02:28:59;94806.53;;;16.02;100.00
10946;BME280;5525;42.648;23.368;2023-06-19T02:31:26;94806.72;;;15.78;100.00
10946;BME280;5525;42.648;23.368;2023-06-19T02:33:53;94809.75;;;15.30;100.00
10946;BME280;5525;42.648;23.368;2023-06-19T02:36:19;94806.59;;;15.27;100.00
10946;BME280;5525;42.648;23.368;2023-06-19T02:38:46;94821.44;;;15.02;100.00
10946;BME280;5525;42.648;23.368;2023-06-19T02:41:13;94813.69;;;14.89;100.00
10946;BME280;5525;42.648;23.368;2023-06-19T02:43:40;94824.94;;;14.87;100.00
10946;BME280;5525;42.648;23.368;2023-06-19T02:46:08;94811.78;;;14.89;100.00
10946;BME280;5525;42.648;23.368;2023-06-19T02:48:35;94809.84;;;14.90;100.00
10946;BME280;5525;42.648;23.368;2023-06-19T02:51:02;94817.00;;;15.10;100.00
10946;BME280;5525;42.648;23.368;2023-06-19T02:53:28;94819.03;;;15.28;100.00
10946;BME280;5525;42.648;23.368;2023-06-19T02:55:55;94815.50;;;15.40;100.00
10946;BME280;5525;42.648;23.368;2023-06-19T02:58:22;94816.53;;;15.36;100.00
10946;BME280;5525;42.648;23.368;2023-06-19T03:00:48;94822.22;;;15.31;100.00
10946;BME280;5525;42.648;23.368;2023-06-19T03:03:17;94819.41;;;15.27;100.00
10946;BME280;5525;42.648;23.368;2023-06-19T03:05:44;94823.56;;;15.09;100.00
10946;BME280;5525;42.648;23.368;2023-06-19T03:08:10;94817.63;;;14.76;100.00
10946;BME280;5525;42.648;23.368;2023-06-19T03:10:37;94820.47;;;14.67;100.00
10946;BME280;5525;42.648;23.368;2023-06-19T03:13:04;94816.19;;;14.66;100.00
10946;BME280;5525;42.648;23.368;2023-06-19T03:15:30;94805.50;;;14.73;100.00
10946;BME280;5525;42.648;23.368;2023-06-19T03:17:57;94825.78;;;15.03;100.00
10946;BME280;5525;42.648;23.368;2023-06-19T03:20:25;94827.00;;;14.78;100.00
10946;BME280;5525;42.648;23.368;2023-06-19T03:22:52;94821.91;;;14.77;100.00
10946;BME280;5525;42.648;23.368;2023-06-19T03:25:18;94814.91;;;15.03;100.00
10946;BME280;5525;42.648;23.368;2023-06-19T03:27:45;94826.94;;;15.18;100.00
10946;BME280;5525;42.648;23.368;2023-06-19T03:30:12;94820.50;;;15.10;100.00
10946;BME280;5525;42.648;23.368;2023-06-19T03:32:39;94818.44;;;14.92;100.00
10946;BME280;5525;42.648;23.368;2023-06-19T03:35:06;94801.06;;;14.81;100.00
10946;BME280;5525;42.648;23.368;2023-06-19T03:37:34;94817.75;;;14.67;100.00
10946;BME280;5525;42.648;23.368;2023-06-19T03:40:01;94819.94;;;14.89;100.00
10946;BME280;5525;42.648;23.368;2023-06-19T03:42:28;94815.28;;;15.17;100.00
10946;BME280;5525;42.648;23.368;2023-06-19T03:44:55;94814.31;;;15.25;100.00
10946;BME280;5525;42.648;23.368;2023-06-19T03:47:21;94821.31;;;15.11;100.00
10946;BME280;5525;42.648;23.368;2023-06-19T03:49:48;94826.31;;;15.09;100.00
10946;BME280;5525;42.648;23.368;2023-06-19T03:52:15;94823.34;;;15.14;100.00
10946;BME280;5525;42.648;23.368;2023-06-19T03:54:43;94817.03;;;15.25;100.00
10946;BME280;5525;42.648;23.368;2023-06-19T03:57:09;94817.88;;;15.42;100.00
10946;BME280;5525;42.648;23.368;2023-06-19T03:59:36;94819.00;;;15.56;100.00
10946;BME280;5525;42.648;23.368;2023-06-19T04:02:03;94804.25;;;15.88;100.00
10946;BME280;5525;42.648;23.368;2023-06-19T04:04:29;94811.75;;;16.10;100.00
10946;BME280;5525;42.648;23.368;2023-06-19T04:06:56;94803.47;;;16.22;100.00
10946;BME280;5525;42.648;23.368;2023-06-19T04:09:24;94811.59;;;16.38;100.00
10946;BME280;5525;42.648;23.368;2023-06-19T04:11:52;94805.00;;;16.73;100.00
10946;BME280;5525;42.648;23.368;2023-06-19T04:14:19;94804.13;;;17.08;100.00
10946;BME280;5525;42.648;23.368;2023-06-19T04:16:48;94806.38;;;17.44;100.00
10946;BME280;5525;42.648;23.368;2023-06-19T04:19:15;94790.63;;;18.31;100.00
10946;BME280;5525;42.648;23.368;2023-06-19T04:21:41;94793.56;;;19.81;100.00
10946;BME280;5525;42.648;23.368;2023-06-19T04:24:08;94796.34;;;21.03;100.00
10946;BME280;5525;42.648;23.368;2023-06-19T04:26:35;94797.38;;;21.99;100.00
10946;BME280;5525;42.648;23.368;2023-06-19T04:29:04;94790.06;;;23.17;100.00
10946;BME280;5525;42.648;23.368;2023-06-19T04:31:31;94802.72;;;23.83;100.00
10946;BME280;5525;42.648;23.368;2023-06-19T04:33:58;94803.59;;;24.65;100.00
10946;BME280;5525;42.648;23.368;2023-06-19T04:36:24;94810.34;;;25.38;100.00
10946;BME280;5525;42.648;23.368;2023-06-19T04:38:51;94806.31;;;25.46;100.00
10946;BME280;5525;42.648;23.368;2023-06-19T04:41:18;94815.19;;;26.14;99.96
10946;BME280;5525;42.648;23.368;2023-06-19T04:43:44;94753.97;;;25.85;97.46
10946;BME280;5525;42.648;23.368;2023-06-19T04:46:12;94808.47;;;26.65;93.60
10946;BME280;5525;42.648;23.368;2023-06-19T04:48:39;94810.81;;;27.48;86.95
10946;BME280;5525;42.648;23.368;2023-06-19T04:51:06;94815.19;;;28.20;82.09
10946;BME280;5525;42.648;23.368;2023-06-19T04:53:33;94817.00;;;28.11;81.17
10946;BME280;5525;42.648;23.368;2023-06-19T04:55:59;94813.22;;;28.53;77.82
10946;BME280;5525;42.648;23.368;2023-06-19T04:58:26;94815.81;;;28.44;74.20
10946;BME280;5525;42.648;23.368;2023-06-19T05:00:53;94811.16;;;30.12;68.90
10946;BME280;5525;42.648;23.368;2023-06-19T05:03:21;94821.31;;;30.56;63.36
10946;BME280;5525;42.648;23.368;2023-06-19T05:05:48;94814.38;;;29.98;65.41
10946;BME280;5525;42.648;23.368;2023-06-19T05:08:15;94816.63;;;29.62;63.15
10946;BME280;5525;42.648;23.368;2023-06-19T05:10:41;94816.72;;;30.87;58.76
10946;BME280;5525;42.648;23.368;2023-06-19T05:13:08;94815.03;;;30.90;56.55
10946;BME280;5525;42.648;23.368;2023-06-19T05:15:35;94810.50;;;31.39;55.58
10946;BME280;5525;42.648;23.368;2023-06-19T05:18:01;94815.66;;;31.28;55.09
10946;BME280;5525;42.648;23.368;2023-06-19T05:20:30;94816.66;;;32.69;48.85
10946;BME280;5525;42.648;23.368;2023-06-19T05:22:56;94824.03;;;31.84;49.56
10946;BME280;5525;42.648;23.368;2023-06-19T05:25:23;94836.56;;;33.47;46.66
10946;BME280;5525;42.648;23.368;2023-06-19T05:27:50;94834.13;;;32.42;47.03
10946;BME280;5525;42.648;23.368;2023-06-19T05:30:17;94836.47;;;32.13;47.82
10946;BME280;5525;42.648;23.368;2023-06-19T05:32:43;94833.06;;;32.98;46.01
10946;BME280;5525;42.648;23.368;2023-06-19T05:35:10;94847.31;;;31.47;46.24
10946;BME280;5525;42.648;23.368;2023-06-19T05:37:38;94829.31;;;30.04;51.44
10946;BME280;5525;42.648;23.368;2023-06-19T05:40:08;94842.81;;;31.49;49.15
10946;BME280;5525;42.648;23.368;2023-06-19T05:42:35;94838.84;;;31.03;49.25
10946;BME280;5525;42.648;23.368;2023-06-19T05:45:02;94850.72;;;32.15;46.16
10946;BME280;5525;42.648;23.368;2023-06-19T05:47:29;94846.59;;;33.08;44.49
10946;BME280;5525;42.648;23.368;2023-06-19T05:49:56;94851.28;;;33.11;43.67
10946;BME280;5525;42.648;23.368;2023-06-19T05:52:23;94855.31;;;32.61;44.11
10946;BME280;5525;42.648;23.368;2023-06-19T05:54:51;94844.03;;;30.80;48.44
10946;BME280;5525;42.648;23.368;2023-06-19T05:57:19;94838.69;;;31.54;46.78
10946;BME280;5525;42.648;23.368;2023-06-19T05:59:46;94848.63;;;32.59;44.55
10946;BME280;5525;42.648;23.368;2023-06-19T06:02:13;94849.25;;;33.03;44.64
10946;BME280;5525;42.648;23.368;2023-06-19T06:04:40;94847.81;;;32.49;44.97
10946;BME280;5525;42.648;23.368;2023-06-19T06:07:07;94856.00;;;33.41;43.04
10946;BME280;5525;42.648;23.368;2023-06-19T06:09:34;94842.66;;;32.88;43.69
10946;BME280;5525;42.648;23.368;2023-06-19T06:12:03;94848.72;;;30.58;48.31
10946;BME280;5525;42.648;23.368;2023-06-19T06:14:29;94847.56;;;31.05;48.17
10946;BME280;5525;42.648;23.368;2023-06-19T06:16:56;94843.19;;;31.04;47.36
10946;BME280;5525;42.648;23.368;2023-06-19T06:19:23;94852.31;;;30.46;50.14
10946;BME280;5525;42.648;23.368;2023-06-19T06:21:49;94843.38;;;31.57;47.85
10946;BME280;5525;42.648;23.368;2023-06-19T06:24:16;94837.19;;;31.06;49.37
10946;BME280;5525;42.648;23.368;2023-06-19T06:26:43;94848.75;;;31.04;50.22
10946;BME280;5525;42.648;23.368;2023-06-19T06:29:11;94859.13;;;31.29;48.25
10946;BME280;5525;42.648;23.368;2023-06-19T06:31:38;94837.97;;;31.62;47.96
10946;BME280;5525;42.648;23.368;2023-06-19T06:34:06;94851.13;;;31.40;48.92
10946;BME280;5525;42.648;23.368;2023-06-19T06:36:33;94838.78;;;31.84;47.36
10946;BME280;5525;42.648;23.368;2023-06-19T06:39:00;94847.25;;;31.25;48.99
10946;BME280;5525;42.648;23.368;2023-06-19T06:41:26;94853.28;;;31.36;48.27
10946;BME280;5525;42.648;23.368;2023-06-19T06:43:53;94845.03;;;31.20;48.64
10946;BME280;5525;42.648;23.368;2023-06-19T06:46:22;94843.28;;;31.48;48.44
10946;BME280;5525;42.648;23.368;2023-06-19T06:48:49;94852.44;;;31.14;49.71
10946;BME280;5525;42.648;23.368;2023-06-19T06:51:16;94829.09;;;30.11;52.49
10946;BME280;5525;42.648;23.368;2023-06-19T06:53:42;94855.38;;;31.66;49.35
10946;BME280;5525;42.648;23.368;2023-06-19T06:56:10;94856.28;;;31.85;48.61
10946;BME280;5525;42.648;23.368;2023-06-19T06:58:36;94855.34;;;33.19;45.90
10946;BME280;5525;42.648;23.368;2023-06-19T07:01:04;94851.31;;;33.83;42.77
10946;BME280;5525;42.648;23.368;2023-06-19T07:03:32;94857.28;;;34.45;41.55
10946;BME280;5525;42.648;23.368;2023-06-19T07:05:59;94854.66;;;34.74;40.67
10946;BME280;5525;42.648;23.368;2023-06-19T07:08:27;94859.53;;;33.33;41.68
10946;BME280;5525;42.648;23.368;2023-06-19T07:10:54;94855.63;;;35.04;38.82
10946;BME280;5525;42.648;23.368;2023-06-19T07:13:20;94857.88;;;35.14;38.43
10946;BME280;5525;42.648;23.368;2023-06-19T07:15:47;94855.44;;;35.93;37.47
10946;BME280;5525;42.648;23.368;2023-06-19T07:18:14;94851.78;;;34.51;39.58
10946;BME280;5525;42.648;23.368;2023-06-19T07:20:42;94859.72;;;36.03;36.51
10946;BME280;5525;42.648;23.368;2023-06-19T07:23:09;94861.53;;;35.53;36.41
10946;BME280;5525;42.648;23.368;2023-06-19T07:25:36;94860.66;;;35.85;35.13
10946;BME280;5525;42.648;23.368;2023-06-19T07:28:03;94851.16;;;36.26;33.68
10946;BME280;5525;42.648;23.368;2023-06-19T07:30:30;94861.56;;;36.49;33.77
10946;BME280;5525;42.648;23.368;2023-06-19T07:32:57;94868.31;;;38.01;31.51
10946;BME280;5525;42.648;23.368;2023-06-19T07:35:24;94862.75;;;37.41;32.56
10946;BME280;5525;42.648;23.368;2023-06-19T07:37:52;94861.34;;;38.73;30.54
10946;BME280;5525;42.648;23.368;2023-06-19T07:40:18;94869.78;;;36.82;31.93
10946;BME280;5525;42.648;23.368;2023-06-19T07:42:45;94871.50;;;38.34;30.75
10946;BME280;5525;42.648;23.368;2023-06-19T07:45:12;94862.94;;;37.03;31.35
10946;BME280;5525;42.648;23.368;2023-06-19T07:47:39;94870.03;;;38.13;30.81
10946;BME280;5525;42.648;23.368;2023-06-19T07:50:06;94866.22;;;39.04;28.36
10946;BME280;5525;42.648;23.368;2023-06-19T07:52:33;94873.09;;;39.40;27.60
10946;BME280;5525;42.648;23.368;2023-06-19T07:55:02;94864.69;;;39.45;28.25
10946;BME280;5525;42.648;23.368;2023-06-19T07:57:29;94865.66;;;37.92;29.80
10946;BME280;5525;42.648;23.368;2023-06-19T07:59:56;94858.88;;;38.55;28.74
10946;BME280;5525;42.648;23.368;2023-06-19T08:02:23;94859.84;;;40.27;27.38
10946;BME280;5525;42.648;23.368;2023-06-19T08:04:50;94860.69;;;38.90;27.82
10946;BME280;5525;42.648;23.368;2023-06-19T08:07:17;94847.34;;;37.62;29.85
10946;BME280;5525;42.648;23.368;2023-06-19T08:09:43;94842.34;;;37.11;30.73
10946;BME280;5525;42.648;23.368;2023-06-19T08:12:11;94847.38;;;37.22;31.04
10946;BME280;5525;42.648;23.368;2023-06-19T08:14:38;94850.72;;;37.26;30.38
10946;BME280;5525;42.648;23.368;2023-06-19T08:17:05;94856.97;;;36.66;30.26
10946;BME280;5525;42.648;23.368;2023-06-19T08:19:32;94856.28;;;37.20;30.00
10946;BME280;5525;42.648;23.368;2023-06-19T08:21:58;94848.50;;;38.72;28.46
10946;BME280;5525;42.648;23.368;2023-06-19T08:24:25;94858.44;;;38.62;26.55
10946;BME280;5525;42.648;23.368;2023-06-19T08:26:52;94855.38;;;38.35;26.81
10946;BME280;5525;42.648;23.368;2023-06-19T08:29:20;94859.22;;;38.37;27.56
10946;BME280;5525;42.648;23.368;2023-06-19T08:31:48;94850.59;;;37.75;26.34
10946;BME280;5525;42.648;23.368;2023-06-19T08:34:14;94839.75;;;38.14;27.49
10946;BME280;5525;42.648;23.368;2023-06-19T08:36:41;94861.59;;;37.93;27.29
10946;BME280;5525;42.648;23.368;2023-06-19T08:39:08;94842.53;;;36.15;28.28
10946;BME280;5525;42.648;23.368;2023-06-19T08:41:36;94858.25;;;38.15;27.35
10946;BME280;5525;42.648;23.368;2023-06-19T08:44:03;94851.31;;;37.30;27.11
10946;BME280;5525;42.648;23.368;2023-06-19T08:46:31;94850.75;;;36.91;26.87
10946;BME280;5525;42.648;23.368;2023-06-19T08:48:58;94853.47;;;36.86;26.20
10946;BME280;5525;42.648;23.368;2023-06-19T08:51:26;94839.75;;;36.30;26.95
10946;BME280;5525;42.648;23.368;2023-06-19T08:53:55;94847.53;;;38.24;25.54
10946;BME280;5525;42.648;23.368;2023-06-19T08:56:22;94843.34;;;36.45;27.07
10946;BME280;5525;42.648;23.368;2023-06-19T08:58:49;94846.03;;;36.54;27.73
10946;BME280;5525;42.648;23.368;2023-06-19T09:01:17;94847.97;;;38.43;25.80
10946;BME280;5525;42.648;23.368;2023-06-19T09:03:46;94844.88;;;38.66;25.30
10946;BME280;5525;42.648;23.368;2023-06-19T09:06:17;94850.66;;;36.71;27.63
10946;BME280;5525;42.648;23.368;2023-06-19T09:08:44;94860.47;;;37.85;25.77
10946;BME280;5525;42.648;23.368;2023-06-19T09:11:11;94848.88;;;38.54;24.99
10946;BME280;5525;42.648;23.368;2023-06-19T09:13:37;94843.31;;;37.08;27.15
10946;BME280;5525;42.648;23.368;2023-06-19T09:16:05;94847.63;;;38.30;24.97
10946;BME280;5525;42.648;23.368;2023-06-19T09:18:42;94842.13;;;39.67;23.96
10946;BME280;5525;42.648;23.368;2023-06-19T09:21:16;94842.66;;;38.50;24.63
10946;BME280;5525;42.648;23.368;2023-06-19T09:23:43;94840.06;;;37.70;25.41
10946;BME280;5525;42.648;23.368;2023-06-19T09:26:10;94843.19;;;39.75;24.18
10946;BME280;5525;42.648;23.368;2023-06-19T09:28:40;94826.09;;;40.17;23.16
10946;BME280;5525;42.648;23.368;2023-06-19T09:31:07;94843.66;;;40.60;22.28
10946;BME280;5525;42.648;23.368;2023-06-19T09:33:34;94840.38;;;41.80;21.27
10946;BME280;5525;42.648;23.368;2023-06-19T09:36:03;94833.38;;;40.52;22.27
10946;BME280;5525;42.648;23.368;2023-06-19T09:38:33;94826.50;;;39.19;23.69
10946;BME280;5525;42.648;23.368;2023-06-19T09:41:02;94831.63;;;38.21;24.07
10946;BME280;5525;42.648;23.368;2023-06-19T09:43:33;94836.50;;;37.35;24.63
10946;BME280;5525;42.648;23.368;2023-06-19T09:46:02;94830.94;;;37.20;24.49
10946;BME280;5525;42.648;23.368;2023-06-19T09:48:30;94835.78;;;37.80;24.12
10946;BME280;5525;42.648;23.368;2023-06-19T09:51:00;94825.97;;;38.78;22.85
10946;BME280;5525;42.648;23.368;2023-06-19T09:53:29;94814.47;;;38.25;23.50
10946;BME280;5525;42.648;23.368;2023-06-19T09:55:58;94815.81;;;36.83;26.01
10946;BME280;5525;42.648;23.368;2023-06-19T09:58:25;94821.03;;;37.45;24.32
10946;BME280;5525;42.648;23.368;2023-06-19T10:00:54;94820.38;;;37.76;24.41
10946;BME280;5525;42.648;23.368;2023-06-19T10:03:30;94811.56;;;38.76;23.55
10946;BME280;5525;42.648;23.368;2023-06-19T10:05:57;94818.94;;;38.62;24.59
10946;BME280;5525;42.648;23.368;2023-06-19T10:08:29;94807.06;;;38.95;24.09
10946;BME280;5525;42.648;23.368;2023-06-19T10:10:58;94814.88;;;38.43;23.17
10946;BME280;5525;42.648;23.368;2023-06-19T10:13:32;94803.94;;;36.94;25.24
10946;BME280;5525;42.648;23.368;2023-06-19T10:16:00;94810.50;;;37.66;24.31
10946;BME280;5525;42.648;23.368;2023-06-19T10:18:27;94797.09;;;38.63;23.61
10946;BME280;5525;42.648;23.368;2023-06-19T10:20:55;94796.25;;;39.94;22.63
10946;BME280;5525;42.648;23.368;2023-06-19T10:23:23;94803.25;;;38.61;22.04
10946;BME280;5525;42.648;23.368;2023-06-19T10:25:55;94799.84;;;38.89;21.18
10946;BME280;5525;42.648;23.368;2023-06-19T10:28:25;94791.56;;;37.66;22.08
10946;BME280;5525;42.648;23.368;2023-06-19T10:30:53;94793.31;;;36.20;23.81
10946;BME280;5525;42.648;23.368;2023-06-19T10:33:21;94781.56;;;37.91;23.82
10946;BME280;5525;42.648;23.368;2023-06-19T10:35:47;94786.66;;;37.41;24.54
10946;BME280;5525;42.648;23.368;2023-06-19T10:38:15;94782.75;;;38.35;23.22
10946;BME280;5525;42.648;23.368;2023-06-19T10:40:42;94786.59;;;39.00;23.00
10946;BME280;5525;42.648;23.368;2023-06-19T10:43:10;94789.72;;;36.68;23.57
10946;BME280;5525;42.648;23.368;2023-06-19T10:45:38;94781.34;;;36.25;25.93
10946;BME280;5525;42.648;23.368;2023-06-19T10:48:05;94778.28;;;36.72;25.59
10946;BME280;5525;42.648;23.368;2023-06-19T10:50:34;94786.72;;;37.67;23.86
10946;BME280;5525;42.648;23.368;2023-06-19T10:53:03;94784.75;;;39.45;21.78
10946;BME280;5525;42.648;23.368;2023-06-19T10:55:30;94781.13;;;38.97;22.92
10946;BME280;5525;42.648;23.368;2023-06-19T10:57:57;94784.66;;;38.18;23.95
10946;BME280;5525;42.648;23.368;2023-06-19T11:00:25;94778.75;;;37.05;25.17
10946;BME280;5525;42.648;23.368;2023-06-19T11:02:55;94773.44;;;37.98;24.17
10946;BME280;5525;42.648;23.368;2023-06-19T11:05:22;94776.78;;;37.11;24.58
10946;BME280;5525;42.648;23.368;2023-06-19T11:07:53;94758.63;;;37.32;24.29
10946;BME280;5525;42.648;23.368;2023-06-19T11:10:21;94758.66;;;35.17;27.79
10946;BME280;5525;42.648;23.368;2023-06-19T11:12:48;94755.50;;;34.77;27.71
10946;BME280;5525;42.648;23.368;2023-06-19T11:15:15;94764.50;;;34.58;28.51
10946;BME280;5525;42.648;23.368;2023-06-19T11:17:42;94756.75;;;35.76;27.34
10946;BME280;5525;42.648;23.368;2023-06-19T11:20:11;94762.94;;;36.24;26.43
10946;BME280;5525;42.648;23.368;2023-06-19T11:22:39;94750.41;;;36.39;27.05
10946;BME280;5525;42.648;23.368;2023-06-19T11:25:08;94759.16;;;36.27;28.03
10946;BME280;5525;42.648;23.368;2023-06-19T11:27:37;94752.88;;;33.49;31.22
10946;BME280;5525;42.648;23.368;2023-06-19T11:30:06;94746.84;;;31.77;34.51
10946;BME280;5525;42.648;23.368;2023-06-19T11:32:35;94741.69;;;31.45;37.44
10946;BME280;5525;42.648;23.368;2023-06-19T11:35:07;94739.91;;;30.95;36.18
10946;BME280;5525;42.648;23.368;2023-06-19T11:37:36;94734.66;;;30.51;40.42
10946;BME280;5525;42.648;23.368;2023-06-19T11:40:04;94744.19;;;29.66;43.10
10946;BME280;5525;42.648;23.368;2023-06-19T11:42:48;94733.81;;;29.12;44.99
10946;BME280;5525;42.648;23.368;2023-06-19T11:45:15;94728.25;;;29.53;46.16
10946;BME280;5525;42.648;23.368;2023-06-19T11:47:43;94726.66;;;29.52;47.69
10946;BME280;5525;42.648;23.368;2023-06-19T11:50:11;94731.59;;;29.07;46.92
10946;BME280;5525;42.648;23.368;2023-06-19T11:52:39;94722.25;;;28.85;49.54
10946;BME280;5525;42.648;23.368;2023-06-19T11:55:07;94717.16;;;28.68;51.06
10946;BME280;5525;42.648;23.368;2023-06-19T11:57:33;94720.78;;;29.09;52.28
10946;BME280;5525;42.648;23.368;2023-06-19T12:00:00;94712.25;;;28.59;52.61
10946;BME280;5525;42.648;23.368;2023-06-19T12:02:29;94726.44;;;28.17;54.92
10946;BME280;5525;42.648;23.368;2023-06-19T12:04:56;94706.59;;;28.63;55.72
10946;BME280;5525;42.648;23.368;2023-06-19T12:07:23;94698.25;;;28.63;52.97
10946;BME280;5525;42.648;23.368;2023-06-19T12:09:52;94708.88;;;28.80;55.38
10946;BME280;5525;42.648;23.368;2023-06-19T12:12:18;94712.22;;;28.88;54.08
10946;BME280;5525;42.648;23.368;2023-06-19T12:14:45;94702.28;;;29.44;55.20
10946;BME280;5525;42.648;23.368;2023-06-19T12:17:12;94704.44;;;29.11;53.85
10946;BME280;5525;42.648;23.368;2023-06-19T12:19:38;94711.97;;;28.98;55.60
10946;BME280;5525;42.648;23.368;2023-06-19T12:22:05;94713.41;;;28.74;57.13
10946;BME280;5525;42.648;23.368;2023-06-19T12:24:32;94708.94;;;28.64;57.64
10946;BME280;5525;42.648;23.368;2023-06-19T12:27:00;94715.88;;;28.72;56.45
10946;BME280;5525;42.648;23.368;2023-06-19T12:29:26;94705.22;;;28.83;57.60
10946;BME280;5525;42.648;23.368;2023-06-19T12:31:59;94706.88;;;28.36;57.03
10946;BME280;5525;42.648;23.368;2023-06-19T12:34:26;94703.00;;;27.50;62.03
10946;BME280;5525;42.648;23.368;2023-06-19T12:36:53;94709.25;;;27.54;62.63
10946;BME280;5525;42.648;23.368;2023-06-19T12:39:22;94693.38;;;27.38;63.48
10946;BME280;5525;42.648;23.368;2023-06-19T12:41:50;94708.75;;;27.59;66.24
10946;BME280;5525;42.648;23.368;2023-06-19T12:44:18;94697.75;;;27.55;65.64
10946;BME280;5525;42.648;23.368;2023-06-19T12:46:44;94682.16;;;27.61;64.26
10946;BME280;5525;42.648;23.368;2023-06-19T12:49:11;94691.50;;;27.67;66.49
10946;BME280;5525;42.648;23.368;2023-06-19T12:51:38;94701.53;;;27.45;64.88
10946;BME280;5525;42.648;23.368;2023-06-19T12:54:04;94697.16;;;27.28;63.29
10946;BME280;5525;42.648;23.368;2023-06-19T12:56:31;94699.25;;;27.40;65.13
10946;BME280;5525;42.648;23.368;2023-06-19T12:58:58;94691.03;;;27.37;63.22